Time;durP1;ratioP1;P1;durP2;ratioP2;P2;SDS_P1;SDS_P2;PMS_P1;PMS_P2;Temp;Humidity;BMP_temperature;BMP_pressure;BME280_temperature;BME280_humidity;BME280_pressure;Samples;Min_cycle;Max_cycle;Signal;HPM_P1;HPM_P2
2023/01/27 00:02:05;;;;;;;25.38;9.75;;;;;;;11.26;41.41;100457.47;5081723;28;20036;-78
2023/01/27 00:05:00;;;;;;;30.60;10.32;;;;;;;11.24;41.28;100457.00;5085921;28;20106;-78
2023/01/27 00:07:55;;;;;;;15.45;6.82;;;;;;;11.16;40.41;100444.22;5095487;28;20052;-78
2023/01/27 00:13:25;;;;;;;54.78;17.38;;;;;;;11.26;43.48;100457.47;5116996;28;20047;-77
2023/01/27 00:13:59;;;;;;;29.50;11.77;;;;;;;11.23;42.19;100458.09;5103899;28;20035;-77
2023/01/27 00:16:51;;;;;;;32.20;11.68;;;;;;;11.22;41.64;100458.44;5100826;28;20035;-78
2023/01/27 00:19:46;;;;;;;43.65;13.55;;;;;;;11.26;42.68;100452.03;5101603;28;20035;-77
2023/01/27 00:25:49;;;;;;;40.22;14.32;;;;;;;11.36;42.67;100462.56;5104926;28;20032;-78
2023/01/27 00:28:43;;;;;;;39.63;13.40;;;;;;;11.34;42.15;100448.47;5106551;28;20036;-77
2023/01/27 00:34:49;;;;;;;36.72;12.18;;;;;;;11.32;41.88;100449.94;5095205;28;20036;-77
2023/01/27 00:37:43;;;;;;;25.27;10.80;;;;;;;11.35;41.65;100458.22;5083862;28;20407;-78
2023/01/27 00:40:38;;;;;;;28.65;12.18;;;;;;;11.30;41.63;100452.97;5082375;28;20052;-77
2023/01/27 00:43:32;;;;;;;35.28;12.35;;;;;;;11.33;41.34;100456.94;5080461;28;20032;-77
2023/01/27 00:46:25;;;;;;;31.15;11.15;;;;;;;11.31;40.83;100446.41;5096103;28;20035;-78
2023/01/27 00:49:18;;;;;;;38.58;14.10;;;;;;;11.35;42.37;100452.00;5115642;28;20031;-78
2023/01/27 00:52:12;;;;;;;23.95;10.30;;;;;;;11.32;41.04;100455.38;5119829;28;20039;-77
2023/01/27 00:55:05;;;;;;;36.92;12.18;;;;;;;11.32;41.05;100453.47;5104890;28;20036;-78
2023/01/27 00:57:57;;;;;;;40.45;12.82;;;;;;;11.32;41.43;100450.72;5095271;28;20036;-77
2023/01/27 01:00:53;;;;;;;31.77;11.25;;;;;;;11.34;41.10;100453.09;5084731;28;20032;-78
2023/01/27 01:03:48;;;;;;;36.17;12.57;;;;;;;11.33;40.16;100456.94;5110532;28;20031;-78
2023/01/27 01:06:40;;;;;;;31.27;11.85;;;;;;;11.31;40.56;100465.47;5104506;28;20039;-77
2023/01/27 01:09:35;;;;;;;28.08;12.05;;;;;;;11.33;40.68;100459.66;5115434;28;20043;-78
2023/01/27 01:12:27;;;;;;;34.35;11.77;;;;;;;11.30;39.95;100463.06;5087329;28;20040;-78
2023/01/27 01:15:19;;;;;;;29.80;10.77;;;;;;;11.31;40.24;100456.50;5115811;28;20035;-79
2023/01/27 01:18:15;;;;;;;35.40;12.23;;;;;;;11.34;40.78;100464.00;5085845;28;20036;-78
2023/01/27 01:21:10;;;;;;;26.13;11.38;;;;;;;11.29;39.82;100459.53;5080005;28;20036;-77
2023/01/27 01:24:04;;;;;;;35.30;11.30;;;;;;;11.27;40.19;100450.91;5083422;28;20040;-78
2023/01/27 01:26:59;;;;;;;27.92;10.20;;;;;;;11.20;41.13;100456.03;5097673;28;20040;-78
2023/01/27 01:29:51;;;;;;;37.10;11.30;;;;;;;11.17;40.62;100453.19;5103331;28;20036;-77
2023/01/27 01:32:43;;;;;;;36.80;11.50;;;;;;;11.17;40.42;100454.00;5106886;28;20281;-77
2023/01/27 01:35:40;;;;;;;25.98;9.95;;;;;;;11.19;40.01;100456.38;5104217;28;20035;-77
2023/01/27 01:38:35;;;;;;;27.90;11.07;;;;;;;11.16;40.14;100449.66;5097835;28;20051;-79
2023/01/27 01:41:30;;;;;;;25.98;11.00;;;;;;;11.12;39.66;100456.88;5105342;28;20040;-78
2023/01/27 01:44:30;;;;;;;41.92;13.38;;;;;;;11.13;40.47;100463.91;5090615;28;20060;-78
2023/01/27 01:47:25;;;;;;;35.75;12.68;;;;;;;11.17;40.77;100464.06;5091530;28;20040;-77
2023/01/27 01:50:20;;;;;;;34.35;11.07;;;;;;;11.15;40.45;100459.75;5101179;28;20039;-77
2023/01/27 01:53:15;;;;;;;27.87;9.63;;;;;;;11.14;39.74;100463.59;5099018;28;20039;-78
2023/01/27 01:56:12;;;;;;;22.67;9.18;;;;;;;11.08;40.12;100456.72;5109706;28;20272;-78
2023/01/27 01:59:09;;;;;;;36.30;12.93;;;;;;;11.11;40.61;100460.72;5089707;28;20418;-77
2023/01/27 02:02:05;;;;;;;34.95;11.85;;;;;;;11.11;39.85;100464.25;5112604;28;20039;-79
2023/01/27 02:05:07;;;;;;;32.10;10.50;;;;;;;11.11;40.01;100461.53;5093925;28;20036;-77
2023/01/27 02:08:09;;;;;;;36.42;12.80;;;;;;;11.05;40.28;100457.38;5104603;28;20044;-78
2023/01/27 02:11:03;;;;;;;31.15;10.82;;;;;;;10.97;39.98;100450.00;5112119;28;20398;-78
2023/01/27 02:13:57;;;;;;;42.47;13.38;;;;;;;11.06;40.33;100453.53;5098887;28;20039;-77
2023/01/27 02:16:50;;;;;;;30.70;12.20;;;;;;;11.00;41.23;100454.84;5095704;28;20035;-78
2023/01/27 02:19:59;;;;;;;32.35;12.63;;;;;;;11.00;40.53;100460.28;5089022;28;20032;-78
2023/01/27 02:23:27;;;;;;;26.63;9.38;;;;;;;10.93;40.09;100462.69;5090900;28;20044;-77
2023/01/27 02:26:37;;;;;;;24.00;10.60;;;;;;;10.89;39.91;100459.00;5092452;28;20047;-77
2023/01/27 02:29:32;;;;;;;26.55;10.50;;;;;;;10.88;39.56;100457.41;5083302;28;20036;-78
2023/01/27 02:32:33;;;;;;;25.63;9.97;;;;;;;10.87;39.77;100455.03;5093604;28;20039;-78
2023/01/27 02:35:35;;;;;;;21.75;9.20;;;;;;;10.84;39.98;100453.75;5089878;28;20047;-78
2023/01/27 02:38:32;;;;;;;41.97;11.60;;;;;;;10.88;41.44;100451.16;5093007;28;20040;-78
2023/01/27 02:41:30;;;;;;;46.08;14.27;;;;;;;10.87;41.49;100455.81;5090775;28;20032;-78
2023/01/27 02:44:27;;;;;;;33.03;10.75;;;;;;;10.81;40.61;100453.59;5094402;28;20522;-78
2023/01/27 02:47:22;;;;;;;22.30;9.75;;;;;;;10.84;41.31;100461.09;5089528;28;20040;-78
2023/01/27 02:50:17;;;;;;;27.50;8.77;;;;;;;10.83;40.09;100449.41;5106827;28;20038;-78
2023/01/27 02:53:11;;;;;;;24.25;7.80;;;;;;;10.79;40.83;100443.03;5111430;28;20046;-78
2023/01/27 02:56:03;;;;;;;22.20;9.75;;;;;;;10.79;40.85;100445.75;5114666;28;20039;-78
2023/01/27 02:58:53;;;;;;;31.77;12.60;;;;;;;10.79;40.99;100444.94;5112955;28;20042;-78
2023/01/27 03:01:49;;;;;;;28.73;11.45;;;;;;;10.83;41.54;100449.41;5095208;28;20040;-78
2023/01/27 03:04:45;;;;;;;32.20;12.73;;;;;;;10.77;40.72;100450.69;5092279;28;20035;-77
2023/01/27 03:07:40;;;;;;;28.73;11.30;;;;;;;10.78;41.17;100444.16;5096450;28;20040;-77
2023/01/27 03:10:35;;;;;;;27.30;11.05;;;;;;;10.73;40.72;100444.31;5085071;28;20031;-78
2023/01/27 03:13:29;;;;;;;22.58;11.00;;;;;;;10.74;40.98;100443.19;5096999;28;20048;-78
2023/01/27 03:19:32;;;;;;;20.92;10.18;;;;;;;10.72;40.90;100450.88;5097342;28;20040;-78
2023/01/27 03:22:25;;;;;;;22.35;10.50;;;;;;;10.76;40.43;100451.84;5097681;28;20040;-78
2023/01/27 03:25:17;;;;;;;33.63;13.13;;;;;;;10.71;40.41;100446.56;5099665;28;20036;-78
2023/01/27 03:28:12;;;;;;;17.60;8.50;;;;;;;10.78;39.91;100444.16;5111934;28;20039;-78
2023/01/27 03:31:18;;;;;;;14.07;8.75;;;;;;;10.76;39.86;100446.41;5080005;28;20050;-78
2023/01/27 03:34:15;;;;;;;11.48;8.45;;;;;;;10.76;39.75;100443.69;5095494;28;20047;-78
2023/01/27 03:46:46;;;;;;;26.15;10.25;;;;;;;10.61;40.96;100442.28;5096015;28;20044;-78
2023/01/27 03:49:38;;;;;;;21.45;10.48;;;;;;;10.60;40.42;100442.59;5100854;28;20043;-77
2023/01/27 03:52:32;;;;;;;14.43;7.43;;;;;;;10.59;40.24;100436.34;5116802;28;20036;-77
2023/01/27 03:55:27;;;;;;;13.13;7.82;;;;;;;10.54;39.91;100441.16;5111309;28;20047;-78
2023/01/27 03:58:28;;;;;;;14.90;6.73;;;;;;;10.60;40.04;100445.31;5111353;28;20039;-76
2023/01/27 04:01:26;;;;;;;19.38;9.75;;;;;;;10.68;40.09;100449.94;5092991;28;20281;-77
2023/01/27 04:07:35;;;;;;;23.80;10.38;;;;;;;10.60;40.96;100440.66;5105493;28;20043;-77
2023/01/27 04:10:24;;;;;;;39.17;12.40;;;;;;;10.64;41.64;100444.34;5115453;28;20028;-78
2023/01/27 04:13:19;;;;;;;30.90;11.65;;;;;;;10.71;41.39;100443.84;5103318;28;20402;-77
2023/01/27 04:16:11;;;;;;;24.00;9.77;;;;;;;10.71;41.06;100446.56;5100637;28;20418;-78
2023/01/27 04:19:05;;;;;;;31.10;11.18;;;;;;;10.71;40.91;100446.56;5107682;28;20047;-78
2023/01/27 04:22:00;;;;;;;18.97;8.67;;;;;;;10.66;41.08;100438.59;5105670;28;20036;-78
2023/01/27 04:24:55;;;;;;;15.43;7.88;;;;;;;10.67;40.68;100443.69;5090845;28;20047;-77
2023/01/27 04:27:50;;;;;;;20.65;7.95;;;;;;;10.75;39.99;100441.28;5103119;28;20043;-78
2023/01/27 04:30:44;;;;;;;16.92;8.60;;;;;;;10.70;39.88;100434.09;5105551;28;20051;-77
2023/01/27 04:33:36;;;;;;;21.37;10.27;;;;;;;10.66;40.17;100433.16;5105568;28;20047;-77
2023/01/27 04:36:31;;;;;;;19.90;8.52;;;;;;;10.62;40.02;100434.88;5091886;28;20040;-78
2023/01/27 04:39:25;;;;;;;16.05;8.43;;;;;;;10.68;39.84;100439.84;5113487;28;20043;-78
2023/01/27 04:42:15;;;;;;;18.88;9.90;;;;;;;10.60;39.62;100442.59;5100597;28;20043;-78
2023/01/27 04:45:10;;;;;;;14.48;8.25;;;;;;;10.59;39.01;100443.69;5103535;28;20050;-78
2023/01/27 04:48:02;;;;;;;;;;;;;;;10.61;39.13;100449.63;5111973;28;20066;-77
2023/01/27 04:50:54;;;;;;;16.83;7.10;;;;;;;10.62;38.96;100443.84;5113958;28;20389;-78
2023/01/27 04:53:49;;;;;;;13.63;6.68;;;;;;;10.61;38.70;100441.47;5111379;28;20055;-77
2023/01/27 04:56:54;;;;;;;26.50;8.07;;;;;;;10.62;38.77;100448.47;5110209;28;20109;-78
2023/01/27 04:59:49;;;;;;;15.55;7.03;;;;;;;10.54;38.57;100452.81;5103609;28;20047;-78
2023/01/27 05:02:44;;;;;;;23.27;9.15;;;;;;;10.48;38.85;100453.31;5080473;28;20044;-77
2023/01/27 05:05:39;;;;;;;16.33;7.60;;;;;;;10.58;39.13;100447.53;5078330;28;20054;-78
2023/01/27 05:08:31;;;;;;;21.73;9.70;;;;;;;10.52;38.93;100456.97;5104402;28;20297;-78
2023/01/27 05:11:25;;;;;;;19.05;8.48;;;;;;;10.50;38.97;100456.50;5104853;28;20281;-78
2023/01/27 05:14:17;;;;;;;15.50;7.78;;;;;;;10.47;39.39;100468.81;5091412;28;20043;-78
2023/01/27 05:17:12;;;;;;;22.10;8.65;;;;;;;10.47;39.53;100465.28;5104783;28;20043;-78
2023/01/27 05:20:06;;;;;;;22.33;7.83;;;;;;;10.48;39.62;100466.91;5097182;28;20043;-77
2023/01/27 05:26:19;;;;;;;31.40;9.98;;;;;;;10.55;40.25;100469.94;5108649;28;20413;-78
2023/01/27 05:29:14;;;;;;;22.50;9.20;;;;;;;10.55;39.62;100480.81;5110133;28;20047;-78
2023/01/27 05:32:08;;;;;;;19.00;8.83;;;;;;;10.54;39.59;100479.22;5112564;27;20051;-78
2023/01/27 05:35:03;;;;;;;28.65;10.07;;;;;;;10.55;40.20;100478.09;5092963;28;20281;-77
2023/01/27 05:37:55;;;;;;;25.58;8.82;;;;;;;10.53;39.44;100462.09;5091348;27;20028;-77
2023/01/27 05:40:50;;;;;;;17.98;7.45;;;;;;;10.57;38.78;100476.63;5088320;28;20068;-76
2023/01/27 05:43:45;;;;;;;17.55;8.40;;;;;;;10.57;38.45;100484.00;5082121;28;20039;-76
2023/01/27 05:46:39;;;;;;;20.73;7.60;;;;;;;10.45;38.61;100486.56;5098740;28;20046;-77
2023/01/27 05:49:32;;;;;;;16.58;8.25;;;;;;;10.52;38.11;100492.31;5103205;28;20055;-76
2023/01/27 05:52:26;;;;;;;17.58;8.15;;;;;;;10.43;38.80;100492.31;5093838;28;20066;-76
2023/01/27 05:55:18;;;;;;;21.85;9.18;;;;;;;10.38;38.98;100489.75;5092831;28;20038;-76
2023/01/27 05:58:13;;;;;;;18.52;9.05;;;;;;;10.40;38.67;100495.69;5107978;28;20122;-76
2023/01/27 06:01:24;;;;;;;28.30;9.30;;;;;;;10.40;39.42;100495.69;5111327;28;20059;-75
2023/01/27 06:04:16;;;;;;;15.85;7.93;;;;;;;10.40;39.02;100498.41;5108236;28;20059;-76
2023/01/27 06:07:10;;;;;;;16.50;7.47;;;;;;;10.35;39.34;100503.19;5088060;28;20088;-76
2023/01/27 06:10:05;;;;;;;26.83;9.63;;;;;;;10.40;40.04;100500.31;5100818;28;20443;-76
2023/01/27 06:12:59;;;;;;;21.52;9.45;;;;;;;10.42;39.73;100506.22;5111655;28;20402;-76
2023/01/27 06:15:54;;;;;;;24.50;10.03;;;;;;;10.38;40.60;100507.97;5111154;28;20039;-75
2023/01/27 06:18:49;;;;;;;22.83;9.30;;;;;;;10.41;40.82;100507.38;5111210;28;20039;-76
2023/01/27 06:21:43;;;;;;;19.03;6.60;;;;;;;10.41;41.06;100501.94;5096275;28;20285;-76
2023/01/27 06:24:38;;;;;;;37.97;11.18;;;;;;;10.48;43.12;100508.47;5114470;28;20046;-76
2023/01/27 06:27:32;;;;;;;25.35;9.73;;;;;;;10.52;42.01;100508.63;5100700;28;20039;-76
2023/01/27 06:30:27;;;;;;;21.52;7.72;;;;;;;10.52;40.61;100504.00;5111143;28;20046;-76
2023/01/27 06:33:22;;;;;;;17.93;7.97;;;;;;;10.47;39.80;100503.34;5113725;28;20441;-76
2023/01/27 06:36:17;;;;;;;30.37;9.87;;;;;;;10.53;42.94;100510.22;5115463;28;20046;-76
2023/01/27 06:39:09;;;;;;;26.10;9.55;;;;;;;10.47;41.73;100519.66;5094774;28;20039;-76
2023/01/27 06:42:03;;;;;;;21.50;8.93;;;;;;;10.44;40.31;100517.59;5097892;28;20038;-76
2023/01/27 06:44:55;;;;;;;15.43;7.93;;;;;;;10.35;38.73;100516.78;5100144;28;20062;-76
2023/01/27 06:47:54;;;;;;;19.25;7.40;;;;;;;10.34;38.53;100526.84;5100035;28;20524;-76
2023/01/27 06:50:49;;;;;;;14.30;7.35;;;;;;;10.28;38.88;100525.41;5113661;28;20042;-76
2023/01/27 06:53:43;;;;;;;17.45;6.68;;;;;;;10.25;38.48;100526.84;5107643;28;20054;-76
2023/01/27 06:56:35;;;;;;;14.85;7.07;;;;;;;10.29;38.47;100535.97;5113177;28;20525;-76
2023/01/27 06:59:30;;;;;;;20.75;8.35;;;;;;;10.30;40.07;100534.06;5114655;28;20398;-76
2023/01/27 07:02:24;;;;;;;17.63;7.90;;;;;;;10.24;38.69;100533.41;5080781;28;20047;-76
2023/01/27 07:05:16;;;;;;;19.10;9.47;;;;;;;10.21;38.73;100535.94;5094755;28;20110;-76
2023/01/27 07:08:11;;;;;;;20.45;8.27;;;;;;;10.19;38.37;100528.13;5100732;28;20106;-76
2023/01/27 07:11:06;;;;;;;17.25;8.20;;;;;;;10.20;38.10;100535.16;5095428;28;20059;-74
2023/01/27 07:14:00;;;;;;;12.05;6.95;;;;;;;10.17;37.40;100530.34;5107747;28;20414;-75
2023/01/27 07:16:55;;;;;;;16.50;7.73;;;;;;;10.15;38.23;100542.63;5092059;28;20058;-75
2023/01/27 07:19:47;;;;;;;18.38;8.07;;;;;;;10.16;38.28;100544.22;5114699;28;20509;-75
2023/01/27 07:22:41;;;;;;;17.27;6.90;;;;;;;10.18;37.90;100542.00;5106643;28;20051;-75
2023/01/27 07:25:34;;;;;;;15.50;6.88;;;;;;;10.14;38.33;100546.44;5099812;28;20038;-75
2023/01/27 07:28:26;;;;;;;12.68;6.50;;;;;;;10.08;37.56;100542.28;5098988;28;20398;-76
2023/01/27 07:31:20;;;;;;;20.88;7.22;;;;;;;10.09;38.40;100550.13;5098707;28;20050;-76
2023/01/27 07:34:15;;;;;;;12.55;5.60;;;;;;;10.08;38.19;100553.94;5093801;28;20047;-75
2023/01/27 07:37:09;;;;;;;16.17;7.30;;;;;;;10.09;38.28;100555.56;5068748;28;20043;-76
2023/01/27 07:40:04;;;;;;;13.75;7.25;;;;;;;10.09;37.73;100557.47;5082622;28;20289;-76
2023/01/27 07:43:01;;;;;;;13.45;6.22;;;;;;;10.04;37.84;100554.91;5089673;28;20406;-75
2023/01/27 07:45:56;;;;;;;11.65;6.10;;;;;;;10.06;37.22;100555.34;5090973;28;20058;-76
2023/01/27 07:48:45;;;;;;;13.00;6.45;;;;;;;10.03;37.71;100558.72;5113815;28;20101;-76
2023/01/27 07:51:40;;;;;;;12.63;6.40;;;;;;;10.14;37.87;100560.03;5113203;28;20054;-76
2023/01/27 07:54:32;;;;;;;20.50;7.45;;;;;;;10.19;42.67;100568.06;5111887;28;20387;-75
2023/01/27 07:57:22;;;;;;;16.52;7.22;;;;;;;10.19;39.20;100559.91;5093665;28;20042;-76
2023/01/27 08:00:15;;;;;;;14.82;6.28;;;;;;;10.13;39.05;100570.09;5103344;28;20042;-77
2023/01/27 08:03:05;;;;;;;14.82;6.45;;;;;;;10.16;38.54;100566.78;5082105;28;20043;-77
2023/01/27 08:05:57;;;;;;;16.40;6.93;;;;;;;10.16;38.75;100561.34;5084255;28;20518;-76
2023/01/27 08:08:52;;;;;;;25.17;8.73;;;;;;;10.17;40.09;100562.13;5113666;28;20058;-76
2023/01/27 08:11:47;;;;;;;17.00;7.30;;;;;;;10.14;38.86;100551.88;5098846;28;20102;-76
2023/01/27 08:14:41;;;;;;;11.10;6.67;;;;;;;10.17;38.88;100556.72;5117498;28;20051;-74
2023/01/27 08:17:36;;;;;;;13.60;5.80;;;;;;;10.19;39.71;100555.28;5106611;28;20038;-76
2023/01/27 08:20:31;;;;;;;18.02;6.68;;;;;;;10.23;40.01;100567.13;5094993;28;20050;-76
2023/01/27 08:23:18;;;;;;;21.95;6.47;;;;;;;10.23;41.09;100578.00;5113549;28;20055;-76
2023/01/27 08:26:12;;;;;;;15.20;6.72;;;;;;;10.23;39.98;100567.13;5108191;28;20402;-77
2023/01/27 08:29:06;;;;;;;18.58;7.03;;;;;;;10.25;39.92;100577.69;5091750;28;20422;-77
2023/01/27 08:32:02;;;;;;;17.65;5.60;;;;;;;10.24;39.23;100582.31;5086985;28;20062;-77
2023/01/27 08:34:55;;;;;;;17.33;7.13;;;;;;;10.24;38.87;100576.88;5129147;28;20051;-78
2023/01/27 08:37:50;;;;;;;9.40;4.88;;;;;;;10.22;38.91;100576.38;5110336;28;20047;-79
2023/01/27 08:40:46;;;;;;;16.77;7.32;;;;;;;10.24;38.81;100576.88;5091698;28;20043;-76
2023/01/27 08:43:38;;;;;;;13.25;5.50;;;;;;;10.27;38.75;100575.44;5113282;28;20047;-76
2023/01/27 08:46:32;;;;;;;13.05;6.68;;;;;;;10.24;38.15;100574.16;5112601;28;20058;-76
2023/01/27 08:49:27;;;;;;;22.77;6.82;;;;;;;10.39;45.78;100582.97;5096543;28;20047;-76
2023/01/27 08:52:22;;;;;;;23.00;7.80;;;;;;;10.53;53.00;100583.63;5091811;28;20097;-77
2023/01/27 08:55:14;;;;;;;21.47;7.13;;;;;;;10.61;56.00;100588.31;5093570;28;20059;-76
2023/01/27 08:58:06;;;;;;;31.27;9.48;;;;;;;10.65;55.00;100584.63;5088974;28;20281;-77
2023/01/27 09:01:02;;;;;;;24.30;7.37;;;;;;;10.73;56.15;100588.47;5112321;28;20039;-76
2023/01/27 09:03:57;;;;;;;19.67;7.43;;;;;;;10.60;46.36;100583.97;5096146;28;20063;-77
2023/01/27 09:06:49;;;;;;;15.40;7.05;;;;;;;10.58;45.18;100578.03;5081622;28;20043;-77
2023/01/27 09:09:43;;;;;;;14.98;6.93;;;;;;;10.58;44.42;100580.75;5099650;28;20043;-77
2023/01/27 09:12:38;;;;;;;17.30;6.77;;;;;;;10.55;43.23;100582.22;5112827;28;20050;-77
2023/01/27 09:15:32;;;;;;;12.32;6.65;;;;;;;10.56;42.59;100588.47;5103345;28;20641;-76
2023/01/27 09:18:25;;;;;;;14.88;6.68;;;;;;;10.53;42.42;100586.34;5092135;28;20039;-76
2023/01/27 09:21:17;;;;;;;17.13;8.43;;;;;;;10.55;41.89;100586.84;5108256;28;20418;-75
2023/01/27 09:24:12;;;;;;;14.77;7.57;;;;;;;10.55;41.13;100586.84;5089876;28;20505;-76
2023/01/27 09:27:01;;;;;;;19.13;7.17;;;;;;;10.52;40.73;100595.63;5085484;28;20277;-75
2023/01/27 09:29:53;;;;;;;14.95;7.63;;;;;;;10.54;40.68;100601.56;5077171;28;20059;-75
2023/01/27 09:32:48;;;;;;;14.35;7.35;;;;;;;10.58;41.48;100599.78;5093061;28;20088;-77
2023/01/27 09:35:52;;;;;;;27.17;6.80;;;;;;;10.69;47.22;100604.63;5097060;28;20042;-76
2023/01/27 09:38:55;;;;;;;16.40;6.93;;;;;;;10.63;43.07;100600.44;5112189;28;20054;-76
2023/01/27 09:41:50;;;;;;;13.27;7.75;;;;;;;10.66;41.70;100607.19;5082768;28;20666;-76
2023/01/27 09:45:05;;;;;;;15.68;6.90;;;;;;;10.71;45.54;100617.91;5111277;28;20046;-76
2023/01/27 09:48:34;;;;;;;16.30;6.35;;;;;;;10.69;45.28;100620.13;5095757;28;20526;-76
2023/01/27 09:51:42;;;;;;;16.45;6.57;;;;;;;10.68;44.49;100622.03;5084026;28;20407;-77
2023/01/27 09:54:51;;;;;;;12.90;6.72;;;;;;;10.65;41.84;100616.44;5099874;28;20047;-77
2023/01/27 09:57:55;;;;;;;10.55;5.72;;;;;;;10.61;39.37;100612.78;5101014;28;20046;-77
2023/01/27 10:01:12;;;;;;;13.07;6.88;;;;;;;10.65;40.44;100622.69;5105875;28;20066;-77
2023/01/27 10:04:37;;;;;;;14.25;7.22;;;;;;;10.64;39.65;100620.28;5115508;28;20047;-77
2023/01/27 10:07:39;;;;;;;12.38;5.78;;;;;;;10.64;39.19;100621.09;5102090;28;20051;-77
2023/01/27 10:11:03;;;;;;;10.77;6.57;;;;;;;10.64;39.74;100614.84;5118620;28;20055;-78
2023/01/27 10:14:16;;;;;;;10.27;6.72;;;;;;;10.69;42.37;100615.50;5119051;28;20043;-78
2023/01/27 10:17:23;;;;;;;9.93;5.90;;;;;;;10.63;38.39;100621.41;5131006;28;20046;-77
2023/01/27 10:20:46;;;;;;;11.27;6.85;;;;;;;10.57;37.13;100611.78;5127447;28;20049;-78
2023/01/27 10:24:04;;;;;;;12.23;7.00;;;;;;;10.45;36.95;100611.63;5104386;28;20043;-78
2023/01/27 10:27:06;;;;;;;10.50;6.25;;;;;;;10.57;38.17;100611.78;5115482;28;20043;-78
2023/01/27 10:30:05;;;;;;;10.10;6.13;;;;;;;10.53;37.87;100608.09;5126311;28;20057;-78
2023/01/27 10:33:16;;;;;;;13.60;7.15;;;;;;;10.42;37.64;100604.06;5107266;28;20130;-76
2023/01/27 10:36:30;;;;;;;11.85;6.80;;;;;;;10.43;36.68;100608.41;5102250;28;20406;-77
2023/01/27 10:39:42;;;;;;;12.82;6.72;;;;;;;10.42;36.18;100604.06;5114469;28;20039;-77
2023/01/27 10:42:59;;;;;;;10.05;6.15;;;;;;;10.46;36.58;100599.63;5119500;28;20038;-76
2023/01/27 10:46:10;;;;;;;14.20;7.70;;;;;;;10.46;36.18;100605.88;5096908;28;20043;-77
2023/01/27 10:49:22;;;;;;;12.52;7.30;;;;;;;10.42;35.56;100601.34;5096516;28;20521;-77
2023/01/27 10:52:21;;;;;;;13.48;6.07;;;;;;;10.39;35.50;100602.00;5091602;28;20153;-76
2023/01/27 10:55:46;;;;;;;9.07;5.82;;;;;;;10.37;35.03;100599.59;5084512;28;20050;-77
2023/01/27 10:59:03;;;;;;;13.55;5.82;;;;;;;10.39;35.37;100596.56;5051326;28;20039;-78
2023/01/27 11:02:01;;;;;;;9.77;5.65;;;;;;;10.33;34.82;100601.34;5081552;28;20042;-76
2023/01/27 11:04:57;;;;;;;8.98;6.05;;;;;;;10.32;34.87;100602.47;5103650;28;20113;-77
2023/01/27 11:08:08;;;;;;;8.95;5.65;;;;;;;10.35;34.66;100601.84;5095050;28;20042;-77
2023/01/27 11:14:32;;;;;;;9.95;6.10;;;;;;;10.25;35.10;100592.06;5114111;28;20050;-77
2023/01/27 11:17:48;;;;;;;8.88;5.45;;;;;;;10.34;34.26;100596.72;5115325;28;20039;-76
2023/01/27 11:20:46;;;;;;;8.35;5.00;;;;;;;10.26;34.51;100588.22;5108540;28;20054;-76
2023/01/27 11:23:44;;;;;;;11.57;4.80;;;;;;;10.33;34.29;100584.25;5099581;28;20039;-77
2023/01/27 11:26:52;;;;;;;6.50;4.75;;;;;;;10.34;34.26;100583.13;5097661;28;20042;-76
2023/01/27 11:30:05;;;;;;;8.02;4.68;;;;;;;10.28;34.79;100586.00;5093893;28;20517;-76
2023/01/27 11:33:06;;;;;;;7.30;4.72;;;;;;;10.35;34.90;100580.09;5101583;28;20058;-77
2023/01/27 11:35:57;;;;;;;12.98;6.13;;;;;;;10.32;34.25;100571.75;5105176;28;20043;-77
2023/01/27 11:38:52;;;;;;;10.38;5.35;;;;;;;10.33;34.11;100581.53;5108844;28;20039;-77
2023/01/27 11:41:51;;;;;;;7.43;5.05;;;;;;;10.26;34.15;100580.06;5086117;28;20055;-77
2023/01/27 11:44:48;;;;;;;8.18;5.10;;;;;;;10.34;34.54;100581.22;5100188;28;20046;-77
2023/01/27 11:47:44;;;;;;;8.65;5.32;;;;;;;10.33;34.21;100567.94;5108469;28;20090;-77
2023/01/27 11:50:35;;;;;;;8.13;5.15;;;;;;;10.29;34.25;100570.50;5104268;28;20047;-77
2023/01/27 11:53:30;;;;;;;10.35;5.45;;;;;;;10.23;34.33;100558.16;5108076;28;20047;-77
2023/01/27 11:56:25;;;;;;;9.07;4.82;;;;;;;10.03;33.93;100551.38;5102525;28;20042;-77
2023/01/27 11:59:30;;;;;;;9.05;5.18;;;;;;;10.17;34.06;100545.84;5088358;28;20407;-76
2023/01/27 12:02:46;;;;;;;9.23;5.50;;;;;;;10.19;34.12;100547.13;5110283;28;20399;-76
2023/01/27 12:05:44;;;;;;;8.75;5.78;;;;;;;10.15;34.00;100543.44;5097484;28;20046;-77
2023/01/27 12:08:47;;;;;;;14.30;5.28;;;;;;;10.23;34.37;100541.84;5095614;28;20059;-77
2023/01/27 12:11:42;;;;;;;7.10;4.85;;;;;;;10.39;34.67;100539.50;5101310;28;20046;-77
2023/01/27 12:14:37;;;;;;;10.55;6.68;;;;;;;10.41;34.55;100529.91;5110456;28;20035;-77
2023/01/27 12:17:40;;;;;;;13.33;5.57;;;;;;;10.42;34.83;100531.50;5105428;28;20058;-76
2023/01/27 12:20:37;;;;;;;9.77;6.40;;;;;;;10.47;34.34;100523.19;5093971;28;20038;-76
2023/01/27 12:23:39;;;;;;;9.15;5.53;;;;;;;10.49;34.81;100520.94;5104283;28;20090;-76
2023/01/27 12:26:35;;;;;;;14.65;6.05;;;;;;;10.41;34.66;100507.38;5096846;28;20039;-79
2023/01/27 12:29:28;;;;;;;;;;;;;;;10.47;35.15;100516.94;5089233;28;20055;-76
2023/01/27 12:32:22;;;;;;;11.27;7.28;;;;;;;10.57;35.06;100511.19;5099531;28;19916;-76
2023/01/27 12:35:18;;;;;;;9.48;6.13;;;;;;;10.65;35.04;100507.69;5114769;28;20039;-77
2023/01/27 12:38:37;;;;;;;11.35;6.72;;;;;;;11.22;41.69;100505.53;5107128;28;20038;-78
2023/01/27 12:41:33;;;;;;;28.27;9.68;;;;;;;11.76;42.94;100503.09;5103856;28;20046;-76
2023/01/27 12:44:25;;;;;;;15.90;7.95;;;;;;;12.41;43.65;100491.63;5102631;28;20046;-75
2023/01/27 12:47:32;;;;;;;13.13;5.97;;;;;;;12.10;36.82;100485.75;5091979;28;20050;-75
2023/01/27 12:50:26;;;;;;;11.68;6.50;;;;;;;10.71;33.70;100484.66;5096376;28;20051;-76
2023/01/27 12:53:21;;;;;;;10.82;6.60;;;;;;;9.42;34.75;100487.91;5109302;28;20038;-76
2023/01/27 12:56:13;;;;;;;;;;;;;;;10.02;35.07;100484.56;5103730;28;20720;-75
2023/01/27 12:59:10;;;;;;;10.00;6.40;;;;;;;10.09;34.60;100482.19;5103288;28;19912;-75
2023/01/27 13:02:23;;;;;;;10.75;6.07;;;;;;;10.42;33.59;100477.13;5083816;28;20102;-76
2023/01/27 13:05:19;;;;;;;10.52;6.53;;;;;;;10.46;33.25;100482.75;5086305;28;20055;-75
2023/01/27 13:08:16;;;;;;;11.02;6.30;;;;;;;10.70;33.80;100474.88;5099126;28;20043;-74
2023/01/27 13:11:09;;;;;;;12.13;6.50;;;;;;;10.33;33.64;100467.38;5108934;28;20058;-75
2023/01/27 13:14:03;;;;;;;10.10;6.50;;;;;;;12.96;30.22;100471.38;5101261;28;20035;-75
2023/01/27 13:17:02;;;;;;;7.77;4.97;;;;;;;20.11;21.06;100478.16;5101844;28;20047;-75
2023/01/27 13:19:55;;;;;;;9.23;6.45;;;;;;;23.19;18.00;100483.72;5100389;28;20652;-74
2023/01/27 13:22:50;;;;;;;9.07;6.05;;;;;;;25.20;16.03;100490.41;5103818;28;20035;-75
2023/01/27 13:25:44;;;;;;;8.63;6.00;;;;;;;24.06;15.85;100486.19;5114998;28;20047;-80
2023/01/27 13:28:41;;;;;;;12.10;6.38;;;;;;;19.16;19.98;100478.13;5099061;28;20050;-77
2023/01/27 13:31:53;;;;;;;9.40;6.03;;;;;;;15.22;25.65;100469.34;5102167;28;20042;-78
2023/01/27 13:34:51;;;;;;;10.75;6.88;;;;;;;13.93;28.31;100466.03;5108285;28;20051;-78
2023/01/27 13:37:56;;;;;;;11.38;7.22;;;;;;;14.16;26.83;100464.41;5120210;28;20050;-80
2023/01/27 13:40:51;;;;;;;11.13;7.13;;;;;;;14.13;27.77;100471.38;5122717;28;20037;-79
2023/01/27 13:43:50;;;;;;;9.02;4.78;;;;;;;14.01;27.92;100470.59;5121583;28;20049;-80
2023/01/27 13:46:43;;;;;;;12.82;7.20;;;;;;;14.15;27.05;100471.03;5130920;28;20682;-80
2023/01/27 13:49:42;;;;;;;16.75;6.43;;;;;;;14.12;26.82;100472.50;5101931;28;20043;-80
2023/01/27 13:52:37;;;;;;;9.95;6.18;;;;;;;14.01;28.17;100470.59;5128884;28;20046;-79
2023/01/27 13:55:57;;;;;;;10.73;7.00;;;;;;;14.09;27.46;100472.41;5110647;28;20047;-80
2023/01/27 13:58:59;;;;;;;9.82;6.90;;;;;;;14.49;27.04;100470.50;5104386;28;20039;-80
2023/01/27 14:02:23;;;;;;;11.37;6.73;;;;;;;13.81;27.77;100466.88;5111433;28;20042;-80
2023/01/27 14:05:26;;;;;;;15.32;7.35;;;;;;;13.45;28.31;100473.13;5123524;28;20050;-80